createdAt,value
2023-03-11T00:03:02.708Z,116.97
2023-03-11T00:06:09.649Z,102.22
2023-03-11T00:09:16.544Z,91.81
2023-03-11T00:12:25.035Z,102.05
2023-03-11T00:15:33.771Z,104.77
2023-03-11T00:18:40.619Z,92.63
2023-03-11T00:21:47.441Z,84.00
2023-03-11T00:24:53.483Z,85.35
2023-03-11T00:28:03.832Z,74.69
2023-03-11T00:31:09.754Z,81.84
2023-03-11T00:34:16.657Z,83.10
2023-03-11T00:37:22.664Z,85.16
2023-03-11T00:40:38.588Z,72.36
2023-03-11T00:43:47.757Z,66.97
2023-03-11T00:46:54.520Z,62.60
2023-03-11T00:50:00.531Z,53.18
2023-03-11T00:53:10.589Z,49.14
2023-03-11T00:56:18.855Z,46.53
2023-03-11T00:59:28.541Z,44.99
2023-03-11T01:02:34.491Z,39.35
2023-03-11T01:05:41.547Z,31.37
2023-03-11T01:08:47.455Z,28.32
2023-03-11T01:11:54.647Z,25.93
2023-03-11T01:15:04.123Z,28.22
2023-03-11T01:18:10.979Z,24.44
2023-03-11T01:21:17.201Z,25.77
2023-03-11T01:24:24.092Z,23.38
2023-03-11T01:27:31.210Z,22.59
2023-03-11T01:30:44.374Z,23.17
2023-03-11T01:33:50.606Z,21.92
2023-03-11T01:36:57.372Z,21.36
2023-03-11T01:40:08.126Z,26.49
2023-03-11T01:43:50.517Z,24.77
2023-03-11T01:47:39.393Z,44.98
2023-03-11T01:50:53.735Z,38.02
2023-03-11T01:54:06.687Z,31.38
2023-03-11T01:57:17.867Z,33.60
2023-03-11T02:00:24.858Z,31.13
2023-03-11T02:03:39.321Z,33.10
2023-03-11T02:06:45.686Z,27.47
2023-03-11T02:09:53.111Z,23.96
2023-03-11T02:13:00.477Z,23.34
2023-03-11T02:16:10.950Z,26.27
2023-03-11T02:19:38.125Z,30.09
2023-03-11T02:22:47.531Z,28.51
2023-03-11T02:26:08.973Z,30.64
2023-03-11T02:29:19.895Z,29.55
2023-03-11T02:32:27.148Z,34.85
2023-03-11T02:35:37.422Z,32.56
2023-03-11T02:38:46.654Z,33.63
2023-03-11T02:41:52.891Z,30.49
2023-03-11T02:45:16.988Z,29.36
2023-03-11T02:48:32.695Z,27.85
2023-03-11T02:51:40.633Z,28.03
2023-03-11T02:54:46.595Z,30.70
2023-03-11T02:57:53.415Z,29.79
2023-03-11T03:01:02.167Z,29.66
2023-03-11T03:04:09.872Z,42.32
2023-03-11T03:07:19.341Z,37.74
2023-03-11T03:10:26.319Z,33.21
2023-03-11T03:13:33.717Z,30.17
2023-03-11T03:16:43.748Z,22.34
2023-03-11T03:19:50.426Z,20.04
2023-03-11T03:22:58.324Z,20.77
2023-03-11T03:26:09.520Z,21.22
2023-03-11T03:29:18.169Z,31.13
2023-03-11T03:32:27.834Z,44.43
2023-03-11T03:35:36.545Z,47.62
2023-03-11T03:38:59.187Z,56.06
2023-03-11T03:42:11.115Z,52.39
2023-03-11T03:45:20.364Z,32.46
2023-03-11T03:48:33.283Z,34.09
2023-03-11T03:51:41.615Z,41.09
2023-03-11T03:55:09.561Z,48.84
2023-03-11T03:58:16.487Z,29.30
2023-03-11T04:01:24.666Z,25.28
2023-03-11T04:04:34.224Z,26.53
2023-03-11T04:07:41.190Z,29.06
2023-03-11T04:10:48.086Z,33.01
2023-03-11T04:13:55.369Z,29.79
2023-03-11T04:17:01.565Z,28.56
2023-03-11T04:20:14.564Z,27.83
2023-03-11T04:23:23.880Z,33.94
2023-03-11T04:26:31.776Z,31.85
2023-03-11T04:29:37.968Z,28.27
2023-03-11T04:32:45.293Z,27.69
2023-03-11T04:35:54.657Z,39.23
2023-03-11T04:39:01.576Z,62.67
2023-03-11T04:42:14.221Z,72.69
2023-03-11T04:45:27.622Z,37.32
2023-03-11T04:48:37.503Z,34.54
2023-03-11T04:51:47.306Z,43.16
2023-03-11T04:54:56.390Z,25.42
2023-03-11T04:58:03.463Z,27.63
2023-03-11T05:01:23.579Z,49.83
2023-03-11T05:04:30.598Z,24.61
2023-03-11T05:07:39.999Z,23.20
2023-03-11T05:10:47.716Z,31.67
2023-03-11T05:13:59.885Z,38.51
2023-03-11T05:17:12.438Z,34.65
2023-03-11T05:20:21.102Z,26.21
2023-03-11T05:23:38.021Z,25.82
2023-03-11T05:26:46.313Z,29.54
2023-03-11T05:29:59.798Z,36.00
2023-03-11T05:33:08.896Z,37.09
2023-03-11T05:36:16.260Z,37.16
2023-03-11T05:39:27.200Z,27.86
2023-03-11T05:42:34.177Z,23.52
2023-03-11T05:45:41.361Z,25.24
2023-03-11T05:48:48.265Z,24.05
2023-03-11T05:51:58.497Z,23.14
2023-03-11T05:55:12.539Z,23.58
2023-03-11T05:58:27.866Z,30.78
2023-03-11T06:01:37.297Z,24.61
2023-03-11T06:04:43.511Z,20.06
2023-03-11T06:07:51.255Z,19.58
2023-03-11T06:11:05.289Z,24.21
2023-03-11T06:14:16.803Z,23.22
2023-03-11T06:17:25.912Z,21.02
2023-03-11T06:20:33.151Z,21.61
2023-03-11T06:23:39.155Z,21.06
2023-03-11T06:26:48.897Z,22.98
2023-03-11T06:29:57.239Z,24.98
2023-03-11T06:33:06.379Z,22.43
2023-03-11T06:36:15.431Z,18.80
2023-03-11T06:39:22.704Z,22.21
2023-03-11T06:42:33.225Z,25.69
2023-03-11T06:45:40.392Z,24.98
2023-03-11T06:48:52.161Z,26.61
2023-03-11T06:52:00.631Z,32.62
2023-03-11T06:55:13.757Z,31.94
2023-03-11T06:58:36.417Z,32.83
2023-03-11T07:01:53.495Z,36.64
2023-03-11T07:05:00.443Z,52.26
2023-03-11T07:08:27.096Z,47.27
2023-03-11T07:11:36.273Z,46.58
2023-03-11T07:14:59.024Z,48.97
2023-03-11T07:18:07.133Z,64.76
2023-03-11T07:21:17.751Z,65.39
2023-03-11T07:24:24.800Z,60.75
2023-03-11T07:27:34.168Z,63.00
2023-03-11T07:30:46.801Z,51.91
2023-03-11T07:33:53.236Z,49.07
2023-03-11T07:37:00.063Z,49.29
2023-03-11T07:40:06.128Z,58.32
2023-03-11T07:43:14.078Z,57.67
2023-03-11T07:46:36.120Z,55.20
2023-03-11T07:49:42.960Z,65.41
2023-03-11T07:52:49.154Z,66.70
2023-03-11T07:56:00.087Z,60.91
2023-03-11T07:59:09.833Z,63.64
2023-03-11T08:02:19.560Z,79.55
2023-03-11T08:05:25.568Z,118.83
2023-03-11T08:08:32.463Z,81.33
2023-03-11T08:11:39.459Z,83.22
2023-03-11T08:14:46.807Z,87.35
2023-03-11T08:17:55.378Z,82.04
2023-03-11T08:21:06.983Z,83.18
2023-03-11T08:24:16.780Z,77.56
2023-03-11T08:27:23.581Z,73.84
2023-03-11T08:30:29.516Z,71.30
2023-03-11T08:33:38.825Z,80.72
2023-03-11T08:36:45.298Z,71.38
2023-03-11T08:39:52.149Z,73.16
2023-03-11T08:42:59.458Z,64.69
2023-03-11T08:46:09.677Z,66.39
2023-03-11T08:49:18.431Z,65.59
2023-03-11T08:52:25.198Z,59.69
2023-03-11T08:55:31.174Z,64.72
2023-03-11T08:58:38.337Z,65.53
2023-03-11T09:01:44.868Z,68.28
2023-03-11T09:04:54.196Z,74.89
2023-03-11T09:08:05.268Z,75.04
2023-03-11T09:11:13.776Z,69.70
2023-03-11T09:14:20.214Z,80.63
2023-03-11T09:17:29.344Z,79.54
2023-03-11T09:20:40.297Z,87.57
2023-03-11T09:23:47.889Z,71.70
2023-03-11T09:26:53.817Z,79.57
2023-03-11T09:30:06.815Z,67.18
2023-03-11T09:33:21.329Z,68.45
2023-03-11T09:36:30.696Z,74.44
2023-03-11T09:39:36.943Z,72.60
2023-03-11T09:42:58.851Z,66.88
2023-03-11T09:46:32.675Z,62.92
2023-03-11T09:50:08.904Z,62.57
2023-03-11T09:53:36.424Z,59.44
2023-03-11T09:56:53.793Z,68.79
2023-03-11T10:00:01.068Z,73.83
2023-03-11T10:03:21.350Z,69.85
2023-03-11T10:06:31.873Z,82.79
2023-03-11T10:09:51.123Z,86.27
2023-03-11T10:13:10.824Z,84.30
2023-03-11T10:16:31.315Z,113.01
2023-03-11T10:19:53.002Z,107.64
2023-03-11T10:23:20.482Z,96.70
2023-03-11T10:26:39.143Z,93.32
2023-03-11T10:30:01.100Z,91.39
2023-03-11T10:33:42.924Z,99.62
2023-03-11T10:37:04.204Z,93.27
2023-03-11T10:40:26.497Z,79.63
2023-03-11T10:43:49.537Z,74.78
2023-03-11T10:46:58.255Z,79.24
2023-03-11T10:50:12.626Z,88.39
2023-03-11T10:53:22.325Z,87.24
2023-03-11T10:56:34.635Z,90.28
2023-03-11T10:59:55.248Z,80.36
2023-03-11T11:03:04.608Z,80.39
2023-03-11T11:06:31.088Z,106.12
2023-03-11T11:09:37.941Z,79.59
2023-03-11T11:13:08.838Z,104.46
2023-03-11T11:16:39.470Z,116.64
2023-03-11T11:20:04.801Z,94.35
2023-03-11T11:23:57.832Z,74.09
2023-03-11T11:27:39.595Z,89.44
2023-03-11T11:30:59.882Z,98.79
2023-03-11T11:34:37.855Z,103.31
2023-03-11T11:37:49.982Z,99.48
2023-03-11T11:41:00.689Z,133.69
2023-03-11T11:44:13.546Z,201.65
2023-03-11T11:47:28.427Z,159.56
2023-03-11T11:50:46.435Z,220.88
2023-03-11T11:54:03.081Z,121.03
2023-03-11T11:57:17.687Z,122.09
2023-03-11T12:00:30.081Z,201.67
2023-03-11T12:04:07.888Z,99.07
2023-03-11T12:07:36.710Z,129.90
2023-03-11T12:10:55.507Z,103.17
2023-03-11T12:14:15.547Z,125.58
2023-03-11T12:17:27.687Z,179.59
2023-03-11T12:20:43.984Z,189.31
2023-03-11T12:24:21.686Z,138.90
2023-03-11T12:27:37.173Z,146.44
2023-03-11T12:30:52.792Z,119.39
2023-03-11T12:34:05.717Z,143.76
2023-03-11T12:37:21.645Z,123.12
2023-03-11T12:40:58.580Z,113.79
2023-03-11T12:44:35.752Z,111.40
2023-03-11T12:47:41.869Z,146.77
2023-03-11T12:50:49.585Z,128.25
2023-03-11T12:53:57.155Z,113.22
2023-03-11T12:57:33.505Z,120.97
2023-03-11T13:01:14.162Z,150.73
2023-03-11T13:04:58.994Z,125.58
2023-03-11T13:08:17.872Z,135.91
2023-03-11T13:11:46.008Z,136.58
2023-03-11T13:15:31.855Z,153.19
2023-03-11T13:18:39.155Z,113.34
2023-03-11T13:21:45.225Z,117.69
2023-03-11T13:24:55.702Z,133.40
2023-03-11T13:28:36.690Z,117.38
2023-03-11T13:32:12.663Z,109.03
2023-03-11T13:35:56.737Z,129.27
2023-03-11T13:39:42.952Z,122.11
2023-03-11T13:43:11.740Z,106.73
2023-03-11T13:46:40.335Z,133.83
2023-03-11T13:50:23.619Z,150.29
2023-03-11T13:53:56.438Z,161.16
2023-03-11T13:57:07.914Z,182.51
2023-03-11T14:00:24.330Z,190.37
2023-03-11T14:03:44.051Z,188.21
2023-03-11T14:06:59.903Z,145.17
2023-03-11T14:10:32.327Z,175.82
2023-03-11T14:13:47.527Z,133.77
2023-03-11T14:16:54.776Z,276.13
2023-03-11T14:20:15.401Z,192.53
2023-03-11T14:23:47.112Z,198.93
2023-03-11T14:27:16.176Z,209.62
2023-03-11T14:30:38.485Z,193.53
2023-03-11T14:34:05.095Z,156.23
2023-03-11T14:37:33.526Z,164.69
2023-03-11T14:40:42.294Z,142.21
2023-03-11T14:43:58.045Z,163.98
2023-03-11T14:47:15.176Z,193.62
2023-03-11T14:50:35.290Z,141.72
2023-03-11T14:53:51.798Z,200.75
2023-03-11T14:57:09.606Z,200.97
2023-03-11T15:00:25.192Z,256.56
2023-03-11T15:03:36.999Z,268.56
2023-03-11T15:06:48.320Z,101.33
2023-03-11T15:09:55.510Z,117.13
2023-03-11T15:13:17.977Z,196.47
2023-03-11T15:16:36.477Z,225.07
2023-03-11T15:19:48.621Z,219.53
2023-03-11T15:23:01.540Z,107.45
2023-03-11T15:26:08.891Z,145.18
2023-03-11T15:29:21.564Z,134.19
2023-03-11T15:32:42.215Z,136.62
2023-03-11T15:35:54.113Z,211.58
2023-03-11T15:39:20.542Z,133.30
2023-03-11T15:42:29.510Z,159.16
2023-03-11T15:45:39.807Z,102.43
2023-03-11T15:48:47.111Z,105.87
2023-03-11T15:51:53.202Z,121.23
2023-03-11T15:55:00.043Z,149.18
2023-03-11T15:58:17.214Z,175.35
2023-03-11T16:01:34.877Z,130.35
2023-03-11T16:04:40.973Z,205.24
2023-03-11T16:07:48.169Z,161.89
2023-03-11T16:10:54.680Z,140.77
2023-03-11T16:14:05.364Z,159.67
2023-03-11T16:17:14.921Z,216.53
2023-03-11T16:20:28.957Z,177.69
2023-03-11T16:23:51.002Z,139.27
2023-03-11T16:26:58.574Z,111.92
2023-03-11T16:30:04.557Z,131.27
2023-03-11T16:33:14.355Z,168.94
2023-03-11T16:36:20.481Z,99.00
2023-03-11T16:39:27.237Z,99.90
2023-03-11T16:42:33.149Z,123.24
2023-03-11T16:45:54.095Z,161.34
2023-03-11T16:49:02.777Z,150.44
2023-03-11T16:52:10.377Z,142.61
2023-03-11T16:55:16.629Z,184.44
2023-03-11T16:58:26.497Z,203.40
2023-03-11T17:01:38.960Z,137.34
2023-03-11T17:04:50.895Z,156.55
2023-03-11T17:08:05.967Z,119.94
2023-03-11T17:11:20.357Z,101.85
2023-03-11T17:14:26.926Z,116.30
2023-03-11T17:17:33.753Z,123.81
2023-03-11T17:20:46.404Z,119.76
2023-03-11T17:23:54.747Z,168.81
2023-03-11T17:27:00.662Z,152.47
2023-03-11T17:30:12.819Z,148.26
2023-03-11T17:33:21.088Z,136.84
2023-03-11T17:36:35.705Z,138.84
2023-03-11T17:39:41.761Z,103.77
2023-03-11T17:42:50.397Z,143.79
2023-03-11T17:45:58.847Z,120.26
2023-03-11T17:49:08.822Z,132.53
2023-03-11T17:52:17.722Z,154.74
2023-03-11T17:55:24.654Z,116.29
2023-03-11T17:58:30.603Z,109.72
2023-03-11T18:01:37.547Z,114.33
2023-03-11T18:04:46.220Z,214.50
2023-03-11T18:07:58.806Z,191.76
2023-03-11T18:11:16.391Z,154.84
2023-03-11T18:14:24.493Z,231.59
2023-03-11T18:17:32.268Z,213.33
2023-03-11T18:20:43.556Z,327.85
2023-03-11T18:23:55.524Z,256.99
2023-03-11T18:27:08.901Z,287.69
2023-03-11T18:30:20.941Z,344.21
2023-03-11T18:33:45.783Z,270.94
2023-03-11T18:36:52.123Z,239.23
2023-03-11T18:40:01.685Z,201.00
2023-03-11T18:43:09.044Z,217.09
2023-03-11T18:46:19.402Z,328.37
2023-03-11T18:49:25.468Z,290.57
2023-03-11T18:52:32.280Z,369.45
2023-03-11T18:55:40.966Z,301.49
2023-03-11T18:58:48.789Z,223.82
2023-03-11T19:01:54.917Z,259.32
2023-03-11T19:05:14.955Z,252.79
2023-03-11T19:08:21.018Z,351.94
2023-03-11T19:11:30.561Z,265.17
2023-03-11T19:14:36.556Z,306.58
2023-03-11T19:17:43.393Z,320.18
2023-03-11T19:21:00.011Z,199.27
2023-03-11T19:24:10.910Z,208.55
2023-03-11T19:27:19.622Z,243.22
2023-03-11T19:30:26.984Z,308.82
2023-03-11T19:33:50.263Z,191.73
2023-03-11T19:36:58.898Z,238.52
2023-03-11T19:40:05.076Z,247.38
2023-03-11T19:43:18.867Z,251.89
2023-03-11T19:46:26.425Z,228.43
2023-03-11T19:49:33.334Z,265.99
2023-03-11T19:52:39.442Z,233.61
2023-03-11T19:55:47.444Z,225.19
2023-03-11T19:58:56.234Z,178.54
2023-03-11T20:02:03.831Z,181.53
2023-03-11T20:05:12.789Z,185.01
2023-03-11T20:08:23.658Z,214.08
2023-03-11T20:11:30.546Z,257.07
2023-03-11T20:14:41.203Z,207.38
2023-03-11T20:17:47.872Z,230.66
2023-03-11T20:20:59.151Z,212.47
2023-03-11T20:24:10.197Z,228.97
2023-03-11T20:27:17.533Z,208.37
2023-03-11T20:30:29.869Z,169.06
2023-03-11T20:33:37.639Z,134.37
2023-03-11T20:37:02.997Z,120.92
2023-03-11T20:40:16.032Z,125.02
2023-03-11T20:43:22.442Z,126.74
2023-03-11T20:46:35.373Z,136.11
2023-03-11T20:49:41.558Z,140.20
2023-03-11T20:52:48.654Z,142.44
2023-03-11T20:55:56.653Z,136.27
2023-03-11T20:59:04.760Z,134.12
2023-03-11T21:02:16.831Z,132.81
2023-03-11T21:05:24.040Z,135.65
2023-03-11T21:08:30.181Z,135.57
2023-03-11T21:11:48.808Z,135.39
2023-03-11T21:14:56.936Z,134.20
2023-03-11T21:18:13.011Z,141.37
2023-03-11T21:21:23.113Z,150.22
2023-03-11T21:24:30.075Z,140.50
2023-03-11T21:27:36.180Z,140.39
2023-03-11T21:30:44.486Z,140.76
2023-03-11T21:33:57.554Z,139.40
2023-03-11T21:37:04.620Z,145.49
2023-03-11T21:40:15.485Z,164.59
2023-03-11T21:43:24.295Z,173.42
2023-03-11T21:46:34.509Z,169.38
2023-03-11T21:49:44.044Z,179.71
2023-03-11T21:52:50.170Z,145.58
2023-03-11T21:55:57.463Z,174.83
2023-03-11T21:59:05.024Z,184.03
2023-03-11T22:02:19.496Z,171.95
2023-03-11T22:05:28.781Z,152.43
2023-03-11T22:08:35.939Z,166.07
2023-03-11T22:11:41.904Z,167.21
2023-03-11T22:14:48.711Z,141.29
2023-03-11T22:17:54.876Z,160.12
2023-03-11T22:21:05.472Z,165.76
2023-03-11T22:24:14.812Z,170.31
2023-03-11T22:27:21.684Z,195.28
2023-03-11T22:30:28.750Z,227.20
2023-03-11T22:33:35.526Z,200.88
2023-03-11T22:36:44.371Z,188.58
2023-03-11T22:39:51.169Z,183.59
2023-03-11T22:42:57.417Z,152.38
2023-03-11T22:46:04.978Z,129.37
2023-03-11T22:49:11.175Z,133.38
2023-03-11T22:52:21.249Z,169.64
2023-03-11T22:55:27.266Z,238.24
2023-03-11T22:58:34.052Z,199.81
2023-03-11T23:01:40.113Z,166.15
2023-03-11T23:04:48.480Z,149.85
2023-03-11T23:07:58.081Z,216.17
2023-03-11T23:11:06.869Z,217.22
2023-03-11T23:14:12.760Z,254.70
2023-03-11T23:17:19.539Z,261.65
2023-03-11T23:20:25.715Z,241.97
2023-03-11T23:23:35.037Z,209.36
2023-03-11T23:26:41.472Z,224.77
2023-03-11T23:29:48.197Z,217.30
2023-03-11T23:32:54.182Z,196.72
2023-03-11T23:36:04.057Z,227.35
2023-03-11T23:39:12.627Z,197.83
2023-03-11T23:42:25.764Z,196.44
2023-03-11T23:45:31.936Z,187.41
2023-03-11T23:48:39.335Z,174.27
2023-03-11T23:51:45.294Z,148.45
2023-03-11T23:54:54.893Z,166.60
2023-03-11T23:58:00.841Z,194.44
